Time;durP1;ratioP1;P1;durP2;ratioP2;P2;SDS_P1;SDS_P2;PMS_P1;PMS_P2;Temp;Humidity;BMP_temperature;BMP_pressure;BME280_temperature;BME280_humidity;BME280_pressure;Samples;Min_cycle;Max_cycle;Signal;HPM_P1;HPM_P2
2022/11/08 00:02:00;;;;;;;8.63;3.17;;;;;;;;;;4950567;28;20484;-54
2022/11/08 00:04:26;;;;;;;4.90;2.90;;;;;;;;;;4979848;28;20468;-55
2022/11/08 00:15:32;;;;;;;;;;;;;;;;;;;;;
2022/11/08 00:17:58;;;;;;;3.93;3.07;;;;;;;;;;4977477;28;20452;-57
2022/11/08 00:20:24;;;;;;;5.37;4.07;;;;;;;;;;4971640;28;20835;-55
2022/11/08 00:22:50;;;;;;;3.37;2.80;;;;;;;;;;4978556;28;20519;-57
2022/11/08 00:25:16;;;;;;;3.83;3.43;;;;;;;;;;4973468;28;20440;-54
2022/11/08 00:27:42;;;;;;;3.70;2.70;;;;;;;;;;4971097;28;20447;-56
2022/11/08 00:30:08;;;;;;;3.83;3.10;;;;;;;;;;4979135;28;20429;-56
2022/11/08 00:32:34;;;;;;;5.30;3.37;;;;;;;;;;4981038;28;20536;-56
2022/11/08 00:35:00;;;;;;;3.50;3.20;;;;;;;;;;4980521;28;20591;-55
2022/11/08 00:37:26;;;;;;;3.93;2.50;;;;;;;;;;4960910;28;20955;-56
2022/11/08 00:39:52;;;;;;;6.07;3.10;;;;;;;;;;4985794;28;20441;-56
2022/11/08 00:42:18;;;;;;;4.40;2.67;;;;;;;;;;4958066;28;20455;-56
2022/11/08 00:44:44;;;;;;;4.13;3.73;;;;;;;;;;4987173;28;21022;-56
2022/11/08 00:47:14;;;;;;;8.73;3.30;;;;;;;;;;4944417;28;20457;-55
2022/11/08 00:49:42;;;;;;;4.60;2.43;;;;;;;;;;4974563;28;20445;-56
2022/11/08 00:52:08;;;;;;;4.20;2.60;;;;;;;;;;4968397;28;21564;-57
2022/11/08 00:54:34;;;;;;;4.60;2.70;;;;;;;;;;4977466;28;20484;-55
2022/11/08 00:57:00;;;;;;;4.90;2.53;;;;;;;;;;4976953;28;20526;-56
2022/11/08 00:59:26;;;;;;;2.90;2.33;;;;;;;;;;4970787;28;20440;-56
2022/11/08 01:01:52;;;;;;;3.27;2.40;;;;;;;;;;4986282;28;20433;-56
2022/11/08 01:04:18;;;;;;;4.00;2.37;;;;;;;;;;4980600;28;20440;-56
2022/11/08 01:06:45;;;;;;;5.20;3.10;;;;;;;;;;4983303;28;20523;-54
2022/11/08 01:09:11;;;;;;;3.00;2.70;;;;;;;;;;4959300;28;20441;-56
2022/11/08 01:11:37;;;;;;;4.40;2.60;;;;;;;;;;4979746;28;20445;-56
2022/11/08 01:14:03;;;;;;;4.37;2.67;;;;;;;;;;4959222;28;20504;-55
2022/11/08 01:16:30;;;;;;;8.63;3.00;;;;;;;;;;4983765;28;20484;-55
2022/11/08 01:18:56;;;;;;;3.17;2.47;;;;;;;;;;4937834;28;20494;-58
2022/11/08 01:21:22;;;;;;;8.00;3.17;;;;;;;;;;4985493;28;20537;-55
2022/11/08 01:23:48;;;;;;;5.23;3.13;;;;;;;;;;4958769;28;20440;-56
2022/11/08 01:26:15;;;;;;;4.63;3.17;;;;;;;;;;4979632;28;20445;-56
2022/11/08 01:28:41;;;;;;;2.73;2.30;;;;;;;;;;4980860;28;20445;-55
2022/11/08 01:31:11;;;;;;;6.03;3.20;;;;;;;;;;4987636;28;20524;-56
2022/11/08 01:33:37;;;;;;;4.47;2.67;;;;;;;;;;4955196;28;20460;-55
2022/11/08 01:36:05;;;;;;;10.50;3.03;;;;;;;;;;4979141;28;20463;-54
2022/11/08 01:38:31;;;;;;;5.30;2.43;;;;;;;;;;4957557;28;21108;-55
2022/11/08 01:40:57;;;;;;;3.83;2.40;;;;;;;;;;4982612;28;20449;-55
2022/11/08 01:43:29;;;;;;;2.50;2.17;;;;;;;;;;4959125;28;20572;-55
2022/11/08 01:46:14;;;;;;;5.80;2.77;;;;;;;;;;4987995;28;20936;-58
2022/11/08 01:48:41;;;;;;;3.50;2.80;;;;;;;;;;4935055;28;20532;-56
2022/11/08 01:51:08;;;;;;;6.63;2.60;;;;;;;;;;4984450;28;20425;-56
2022/11/08 01:53:34;;;;;;;3.60;2.43;;;;;;;;;;4959704;28;20500;-60
2022/11/08 01:56:00;;;;;;;6.73;2.77;;;;;;;;;;4983118;28;20558;-56
2022/11/08 01:58:26;;;;;;;3.83;2.80;;;;;;;;;;4991828;28;20441;-54
2022/11/08 02:00:52;;;;;;;4.27;2.90;;;;;;;;;;4994862;28;20476;-56
2022/11/08 02:03:18;;;;;;;2.70;2.27;;;;;;;;;;4957220;28;20503;-54
2022/11/08 02:05:44;;;;;;;4.43;2.47;;;;;;;;;;4999094;28;20441;-55
2022/11/08 02:08:32;;;;;;;5.80;2.90;;;;;;;;;;4965968;28;20441;-54
2022/11/08 02:10:58;;;;;;;8.83;3.00;;;;;;;;;;4977538;28;20440;-54
2022/11/08 02:13:24;;;;;;;5.50;2.60;;;;;;;;;;4976984;28;20492;-54
2022/11/08 02:15:50;;;;;;;5.07;2.03;;;;;;;;;;4980793;28;20484;-55
2022/11/08 02:18:20;;;;;;;7.47;2.93;;;;;;;;;;4950782;28;21014;-55
2022/11/08 02:20:50;;;;;;;3.57;2.57;;;;;;;;;;4983692;28;20566;-55
2022/11/08 02:23:21;;;;;;;6.53;2.80;;;;;;;;;;4958430;28;20457;-54
2022/11/08 02:25:47;;;;;;;4.60;2.70;;;;;;;;;;4976149;28;20450;-54
2022/11/08 02:28:13;;;;;;;4.90;2.00;;;;;;;;;;4982034;28;20444;-54
2022/11/08 02:30:39;;;;;;;9.00;3.43;;;;;;;;;;4983463;28;20500;-55
2022/11/08 02:33:34;;;;;;;5.97;2.90;;;;;;;;;;4980756;28;20432;-54
2022/11/08 02:36:00;;;;;;;6.27;3.33;;;;;;;;;;4979746;28;20488;-56
2022/11/08 02:38:26;;;;;;;3.93;2.87;;;;;;;;;;4956647;28;20546;-55
2022/11/08 02:40:53;;;;;;;5.90;3.10;;;;;;;;;;4983688;28;20442;-56
2022/11/08 02:43:19;;;;;;;6.70;2.80;;;;;;;;;;4962338;28;20441;-54
2022/11/08 02:45:45;;;;;;;3.00;2.13;;;;;;;;;;4989496;28;20451;-55
2022/11/08 02:48:11;;;;;;;2.70;2.07;;;;;;;;;;4982274;28;20436;-56
2022/11/08 02:50:37;;;;;;;5.27;2.30;;;;;;;;;;4943711;28;20453;-55
2022/11/08 02:53:03;;;;;;;10.47;2.60;;;;;;;;;;4996335;28;20503;-55
2022/11/08 02:55:29;;;;;;;4.30;2.47;;;;;;;;;;4960974;28;21013;-56
2022/11/08 02:57:55;;;;;;;3.63;2.30;;;;;;;;;;4986357;28;20476;-57
2022/11/08 03:00:21;;;;;;;4.37;2.60;;;;;;;;;;4976019;28;20491;-56
2022/11/08 03:02:50;;;;;;;4.07;2.27;;;;;;;;;;4979541;28;20439;-56
2022/11/08 03:05:16;;;;;;;3.47;2.30;;;;;;;;;;4976368;28;20447;-55
2022/11/08 03:07:43;;;;;;;3.00;2.70;;;;;;;;;;4988058;28;20589;-56
2022/11/08 03:10:09;;;;;;;3.40;2.50;;;;;;;;;;4952533;28;20445;-56
2022/11/08 03:12:35;;;;;;;5.63;2.87;;;;;;;;;;4984697;28;20424;-55
2022/11/08 03:15:01;;;;;;;4.40;2.70;;;;;;;;;;4960041;28;20930;-53
2022/11/08 03:17:27;;;;;;;3.73;2.23;;;;;;;;;;4982572;28;20437;-55
2022/11/08 03:19:53;;;;;;;3.60;2.30;;;;;;;;;;4939782;28;20527;-56
2022/11/08 03:22:19;;;;;;;4.17;2.80;;;;;;;;;;4980948;28;20451;-55
2022/11/08 03:24:45;;;;;;;4.27;2.47;;;;;;;;;;4978337;28;20977;-54
2022/11/08 03:27:14;;;;;;;5.50;2.73;;;;;;;;;;4976657;28;20527;-57
2022/11/08 03:29:39;;;;;;;4.23;2.60;;;;;;;;;;4982120;28;20441;-56
2022/11/08 03:32:05;;;;;;;4.43;2.67;;;;;;;;;;4974299;28;21016;-56
2022/11/08 03:34:31;;;;;;;4.80;2.47;;;;;;;;;;4983517;28;20571;-54
2022/11/08 03:36:57;;;;;;;3.40;2.73;;;;;;;;;;4975203;28;20905;-54
2022/11/08 03:39:24;;;;;;;3.60;2.33;;;;;;;;;;4977399;28;20441;-55
2022/11/08 03:41:50;;;;;;;3.23;2.07;;;;;;;;;;4962357;28;20452;-54
2022/11/08 03:44:15;;;;;;;2.83;2.30;;;;;;;;;;4979862;28;20429;-53
2022/11/08 03:46:41;;;;;;;3.43;2.50;;;;;;;;;;4957483;28;20540;-55
2022/11/08 03:49:07;;;;;;;5.70;2.53;;;;;;;;;;4983513;28;20437;-55
2022/11/08 03:51:33;;;;;;;3.77;2.40;;;;;;;;;;4941055;28;20450;-55
2022/11/08 03:53:59;;;;;;;3.37;2.47;;;;;;;;;;4983119;28;20476;-54
2022/11/08 03:56:25;;;;;;;3.37;2.67;;;;;;;;;;4951272;28;20441;-54
2022/11/08 03:58:51;;;;;;;3.47;2.47;;;;;;;;;;4980411;28;20451;-55
2022/11/08 04:01:17;;;;;;;5.03;2.57;;;;;;;;;;4968409;28;20441;-54
2022/11/08 04:03:43;;;;;;;4.80;3.13;;;;;;;;;;4991333;28;20537;-55
2022/11/08 04:06:09;;;;;;;4.43;3.37;;;;;;;;;;4985882;28;20443;-54
2022/11/08 04:08:35;;;;;;;5.33;2.80;;;;;;;;;;5004213;28;20437;-55
2022/11/08 04:16:31;;;;;;;4.13;2.77;;;;;;;;;;4981012;28;21462;-54
2022/11/08 04:21:43;;;;;;;3.83;2.27;;;;;;;;;;4942319;28;20632;-55
2022/11/08 04:24:09;;;;;;;9.63;3.10;;;;;;;;;;4956593;28;20440;-57
2022/11/08 04:26:35;;;;;;;3.30;2.10;;;;;;;;;;4987226;28;21154;-55
2022/11/08 04:29:04;;;;;;;4.13;2.97;;;;;;;;;;4980788;28;20483;-55
2022/11/08 04:31:30;;;;;;;2.30;2.00;;;;;;;;;;4983210;28;20479;-55
2022/11/08 04:33:56;;;;;;;3.97;2.27;;;;;;;;;;4956499;28;20473;-55
2022/11/08 04:36:22;;;;;;;3.90;2.20;;;;;;;;;;4990785;28;21045;-56
2022/11/08 04:38:49;;;;;;;10.20;5.40;;;;;;;;;;4964259;28;20809;-54
2022/11/08 04:41:15;;;;;;;3.17;2.73;;;;;;;;;;4982011;28;20951;-55
2022/11/08 04:43:41;;;;;;;3.10;2.40;;;;;;;;;;4957587;28;20462;-55
2022/11/08 04:46:07;;;;;;;3.07;2.07;;;;;;;;;;4984248;28;20452;-55
2022/11/08 04:48:33;;;;;;;2.70;2.20;;;;;;;;;;4984235;28;21087;-55
2022/11/08 04:51:03;;;;;;;4.23;2.10;;;;;;;;;;4984960;28;20436;-53
2022/11/08 04:53:29;;;;;;;2.43;2.10;;;;;;;;;;4944622;28;20511;-55
2022/11/08 04:55:59;;;;;;;3.20;2.20;;;;;;;;;;4986278;28;20477;-55
2022/11/08 04:58:25;;;;;;;7.37;3.00;;;;;;;;;;4978283;28;20440;-59
2022/11/08 05:00:51;;;;;;;3.70;2.30;;;;;;;;;;4978745;28;20937;-56
2022/11/08 05:03:17;;;;;;;3.53;2.40;;;;;;;;;;4979948;28;20452;-55
2022/11/08 05:05:43;;;;;;;4.93;2.20;;;;;;;;;;4971454;28;20453;-55
2022/11/08 05:08:09;;;;;;;4.47;2.60;;;;;;;;;;4986428;28;20453;-56
2022/11/08 05:10:35;;;;;;;2.53;2.00;;;;;;;;;;4982113;28;20547;-55
2022/11/08 05:13:01;;;;;;;4.50;2.67;;;;;;;;;;4981516;28;20461;-56
2022/11/08 05:15:27;;;;;;;12.27;3.23;;;;;;;;;;4929069;28;20488;-55
2022/11/08 05:17:53;;;;;;;3.23;2.70;;;;;;;;;;4971534;28;20441;-54
2022/11/08 05:25:48;;;;;;;3.90;2.60;;;;;;;;;;4939306;28;20976;-56
2022/11/08 05:28:14;;;;;;;4.10;2.50;;;;;;;;;;4983073;28;20433;-56
2022/11/08 05:30:40;;;;;;;2.47;2.17;;;;;;;;;;4977955;28;20439;-57
2022/11/08 05:33:06;;;;;;;4.67;2.90;;;;;;;;;;4917480;28;20856;-55
2022/11/08 05:35:33;;;;;;;3.33;2.70;;;;;;;;;;4976283;28;20476;-55
2022/11/08 05:37:59;;;;;;;3.63;3.33;;;;;;;;;;4967325;28;20448;-56
2022/11/08 05:40:25;;;;;;;3.27;1.90;;;;;;;;;;4976223;28;20444;-56
2022/11/08 05:42:53;;;;;;;5.20;1.90;;;;;;;;;;4960058;28;21517;-56
2022/11/08 05:45:19;;;;;;;3.67;2.90;;;;;;;;;;4969959;28;20453;-57
2022/11/08 05:47:45;;;;;;;5.20;2.70;;;;;;;;;;4959078;28;20450;-54
2022/11/08 05:50:12;;;;;;;5.97;3.47;;;;;;;;;;4959422;28;20440;-54
2022/11/08 05:52:38;;;;;;;7.50;2.70;;;;;;;;;;4963877;28;20511;-55
2022/11/08 05:55:04;;;;;;;5.57;3.00;;;;;;;;;;4962698;28;20477;-55
2022/11/08 05:57:40;;;;;;;9.77;6.00;;;;;;;;;;4967658;28;20798;-54
2022/11/08 06:00:06;;;;;;;7.70;3.20;;;;;;;;;;4951298;28;20496;-54
2022/11/08 06:02:32;;;;;;;6.03;2.43;;;;;;;;;;4967584;28;20481;-54
2022/11/08 06:04:58;;;;;;;4.17;2.67;;;;;;;;;;4962386;28;20582;-54
2022/11/08 06:07:24;;;;;;;5.10;2.87;;;;;;;;;;4980096;28;20801;-55
2022/11/08 06:09:50;;;;;;;3.80;3.03;;;;;;;;;;4957874;28;20961;-55
2022/11/08 06:12:16;;;;;;;3.67;2.20;;;;;;;;;;4964485;28;20476;-57
2022/11/08 06:14:42;;;;;;;6.77;1.97;;;;;;;;;;4955723;28;20514;-55
2022/11/08 06:17:08;;;;;;;3.70;2.27;;;;;;;;;;4950057;28;20436;-57
2022/11/08 06:19:35;;;;;;;8.23;2.47;;;;;;;;;;4964938;28;20508;-54
2022/11/08 06:22:01;;;;;;;5.07;2.03;;;;;;;;;;4967023;28;20954;-55
2022/11/08 06:24:27;;;;;;;4.63;2.80;;;;;;;;;;4979268;28;20484;-56
2022/11/08 06:26:53;;;;;;;4.73;2.53;;;;;;;;;;4968075;28;20441;-55
2022/11/08 06:29:19;;;;;;;3.83;2.17;;;;;;;;;;4973850;28;20797;-57
2022/11/08 06:31:45;;;;;;;4.83;2.37;;;;;;;;;;4939769;28;20445;-55
2022/11/08 06:34:11;;;;;;;3.13;2.00;;;;;;;;;;4979945;28;20532;-55
2022/11/08 06:36:37;;;;;;;3.83;2.30;;;;;;;;;;4963693;28;20450;-55
2022/11/08 06:39:03;;;;;;;6.07;2.50;;;;;;;;;;4984884;28;20445;-56
2022/11/08 06:41:29;;;;;;;4.20;2.90;;;;;;;;;;4994124;28;20443;-56
2022/11/08 06:43:55;;;;;;;3.03;2.10;;;;;;;;;;4985958;28;20449;-57
2022/11/08 06:46:22;;;;;;;3.73;2.20;;;;;;;;;;4976395;28;20425;-55
2022/11/08 06:48:48;;;;;;;2.83;2.53;;;;;;;;;;4982205;28;20777;-56
2022/11/08 06:51:14;;;;;;;4.23;2.60;;;;;;;;;;4965991;28;20441;-57
2022/11/08 06:53:40;;;;;;;2.53;2.33;;;;;;;;;;4984983;28;20441;-56
2022/11/08 06:56:06;;;;;;;4.37;2.70;;;;;;;;;;4955189;28;20856;-56
2022/11/08 06:58:32;;;;;;;3.43;2.50;;;;;;;;;;4983657;28;20432;-55
2022/11/08 07:00:57;;;;;;;4.20;2.50;;;;;;;;;;4981717;28;20478;-55
2022/11/08 07:03:23;;;;;;;5.07;2.57;;;;;;;;;;4982465;28;20528;-59
2022/11/08 07:05:49;;;;;;;7.00;3.03;;;;;;;;;;4947661;28;20458;-56
2022/11/08 07:08:15;;;;;;;4.20;3.07;;;;;;;;;;4988300;28;20444;-56
2022/11/08 07:10:41;;;;;;;4.20;2.70;;;;;;;;;;4987583;28;20449;-57
2022/11/08 07:13:09;;;;;;;4.57;3.10;;;;;;;;;;4990194;28;20564;-57
2022/11/08 07:15:35;;;;;;;5.93;3.10;;;;;;;;;;4964732;28;20559;-57
2022/11/08 07:18:05;;;;;;;4.43;2.60;;;;;;;;;;4986240;28;20519;-57
2022/11/08 07:20:31;;;;;;;5.67;2.73;;;;;;;;;;4983075;28;20959;-56
2022/11/08 07:22:57;;;;;;;6.30;2.77;;;;;;;;;;4982396;28;20429;-55
2022/11/08 07:25:23;;;;;;;3.17;2.40;;;;;;;;;;4967736;28;21072;-56
2022/11/08 07:27:49;;;;;;;3.50;2.77;;;;;;;;;;4994280;28;20424;-56
2022/11/08 07:30:15;;;;;;;2.90;2.20;;;;;;;;;;4959702;28;23354;-54
2022/11/08 07:32:41;;;;;;;3.23;2.47;;;;;;;;;;4988116;28;20969;-56
2022/11/08 07:35:07;;;;;;;4.20;2.33;;;;;;;;;;4948927;28;21043;-55
2022/11/08 07:37:33;;;;;;;3.67;2.57;;;;;;;;;;4995083;28;20429;-56
2022/11/08 07:39:59;;;;;;;4.70;2.30;;;;;;;;;;4986777;28;20647;-56
2022/11/08 07:42:25;;;;;;;5.10;2.67;;;;;;;;;;4989464;28;20433;-55
2022/11/08 07:44:51;;;;;;;3.77;2.20;;;;;;;;;;4988716;28;20439;-57
2022/11/08 07:47:17;;;;;;;2.77;1.97;;;;;;;;;;4986971;28;20423;-56
2022/11/08 07:49:43;;;;;;;4.90;2.10;;;;;;;;;;4998018;28;20451;-56
2022/11/08 07:52:09;;;;;;;6.20;1.97;;;;;;;;;;4981353;28;20436;-59
2022/11/08 07:54:35;;;;;;;7.13;2.17;;;;;;;;;;4995705;28;20475;-56
2022/11/08 07:57:01;;;;;;;3.30;2.30;;;;;;;;;;4987871;28;20572;-56
2022/11/08 07:59:27;;;;;;;2.77;2.00;;;;;;;;;;4990162;28;20471;-58
2022/11/08 08:01:53;;;;;;;2.63;1.77;;;;;;;;;;4959411;28;20457;-56
2022/11/08 08:04:19;;;;;;;3.00;2.20;;;;;;;;;;4960128;28;20839;-57
2022/11/08 08:06:45;;;;;;;5.30;2.20;;;;;;;;;;4992570;28;20456;-58
2022/11/08 08:09:11;;;;;;;4.50;2.77;;;;;;;;;;4953158;28;20443;-57
2022/11/08 08:11:37;;;;;;;3.20;2.23;;;;;;;;;;4986565;28;20440;-56
2022/11/08 08:14:03;;;;;;;2.77;2.00;;;;;;;;;;4965115;28;20471;-56
2022/11/08 08:16:29;;;;;;;2.80;2.10;;;;;;;;;;4985370;28;20538;-56
2022/11/08 08:18:55;;;;;;;2.33;1.73;;;;;;;;;;4985653;28;20441;-56
2022/11/08 08:21:21;;;;;;;2.53;1.73;;;;;;;;;;4986131;28;20457;-57
2022/11/08 08:23:47;;;;;;;2.17;1.60;;;;;;;;;;4990736;28;20441;-57
2022/11/08 08:26:13;;;;;;;2.97;1.87;;;;;;;;;;4985485;28;20531;-57
2022/11/08 08:28:38;;;;;;;4.63;1.77;;;;;;;;;;4964182;28;20544;-58
2022/11/08 08:31:05;;;;;;;6.40;1.80;;;;;;;;;;4985944;28;20487;-56
2022/11/08 08:33:32;;;;;;;3.00;1.87;;;;;;;;;;4962445;28;20879;-54
2022/11/08 08:36:00;;;;;;;4.37;1.90;;;;;;;;;;4983736;28;20527;-55
2022/11/08 08:38:26;;;;;;;1.40;1.17;;;;;;;;;;4982274;28;20440;-56
2022/11/08 08:40:52;;;;;;;3.90;1.53;;;;;;;;;;4977802;28;20443;-56
2022/11/08 08:43:18;;;;;;;2.23;1.70;;;;;;;;;;4953309;28;20456;-57
2022/11/08 08:45:45;;;;;;;2.80;1.80;;;;;;;;;;4984953;28;20512;-56
2022/11/08 08:48:11;;;;;;;4.43;1.90;;;;;;;;;;4963294;28;20448;-57
2022/11/08 08:50:37;;;;;;;2.80;1.60;;;;;;;;;;4985022;28;20449;-55
2022/11/08 08:53:04;;;;;;;3.00;1.47;;;;;;;;;;4972916;28;20860;-57
2022/11/08 08:55:30;;;;;;;2.33;2.00;;;;;;;;;;5001346;28;20883;-58
2022/11/08 08:57:56;;;;;;;7.17;1.80;;;;;;;;;;4986693;28;20440;-56
2022/11/08 09:00:22;;;;;;;2.57;1.97;;;;;;;;;;4990576;28;20442;-56
2022/11/08 09:02:48;;;;;;;2.50;1.80;;;;;;;;;;4959110;28;20511;-58
2022/11/08 09:05:14;;;;;;;4.50;1.87;;;;;;;;;;4985716;28;20962;-57
2022/11/08 09:07:40;;;;;;;3.03;1.70;;;;;;;;;;4979283;28;20413;-57
2022/11/08 09:10:07;;;;;;;2.33;1.50;;;;;;;;;;4987530;28;20452;-57
2022/11/08 09:12:33;;;;;;;1.80;1.40;;;;;;;;;;4997494;28;20447;-57
2022/11/08 09:14:59;;;;;;;3.50;1.60;;;;;;;;;;4988006;28;20816;-58
2022/11/08 09:17:26;;;;;;;2.47;1.57;;;;;;;;;;4961713;28;21188;-55
2022/11/08 09:19:53;;;;;;;2.43;1.40;;;;;;;;;;4971802;28;20453;-55
2022/11/08 09:22:19;;;;;;;2.23;2.03;;;;;;;;;;4977446;28;20439;-60
2022/11/08 09:24:45;;;;;;;2.70;1.40;;;;;;;;;;4982448;28;20467;-55
2022/11/08 09:27:11;;;;;;;1.83;1.20;;;;;;;;;;4988277;28;20433;-56
2022/11/08 09:29:37;;;;;;;2.00;1.10;;;;;;;;;;4981533;28;20469;-55
2022/11/08 09:32:03;;;;;;;2.13;1.10;;;;;;;;;;4991143;28;21056;-56
2022/11/08 09:34:29;;;;;;;2.77;1.43;;;;;;;;;;4984000;28;20506;-56
2022/11/08 09:36:55;;;;;;;2.40;1.20;;;;;;;;;;4991826;28;20472;-54
2022/11/08 09:39:21;;;;;;;2.10;1.13;;;;;;;;;;4962638;28;20445;-55
2022/11/08 09:41:47;;;;;;;1.47;1.00;;;;;;;;;;4992719;28;20197;-55
2022/11/08 09:44:13;;;;;;;1.70;1.13;;;;;;;;;;4957074;28;20162;-55
2022/11/08 09:46:39;;;;;;;2.80;1.87;;;;;;;;;;4986852;28;20425;-55
2022/11/08 09:49:06;;;;;;;2.13;1.20;;;;;;;;;;4945449;28;20448;-55
2022/11/08 09:51:32;;;;;;;3.20;1.47;;;;;;;;;;4985236;28;20444;-56
2022/11/08 09:53:58;;;;;;;2.60;1.10;;;;;;;;;;4967976;28;20446;-56
2022/11/08 09:56:25;;;;;;;2.03;1.10;;;;;;;;;;4967377;28;20543;-56
2022/11/08 09:58:57;;;;;;;2.20;1.53;;;;;;;;;;4992602;28;20505;-55
2022/11/08 10:01:23;;;;;;;3.83;1.23;;;;;;;;;;4963354;28;22267;-58
2022/11/08 10:03:49;;;;;;;2.70;1.27;;;;;;;;;;4989728;28;20753;-58
2022/11/08 10:06:27;;;;;;;1.40;1.00;;;;;;;;;;4982575;28;20540;-56
2022/11/08 10:08:53;;;;;;;3.13;1.60;;;;;;;;;;4981968;28;20440;-56
2022/11/08 10:11:58;;;;;;;3.20;1.50;;;;;;;;;;4957864;28;20491;-56
2022/11/08 10:14:27;;;;;;;4.30;1.93;;;;;;;;;;4952166;28;21175;-55
2022/11/08 10:16:56;;;;;;;3.50;1.50;;;;;;;;;;4954711;28;20452;-58
2022/11/08 10:19:41;;;;;;;2.63;1.27;;;;;;;;;;4962466;28;24695;-57
2022/11/08 10:22:18;;;;;;;8.10;2.33;;;;;;;;;;4970949;28;20437;-57
2022/11/08 10:24:50;;;;;;;3.40;1.70;;;;;;;;;;4961181;28;20445;-57
2022/11/08 10:27:19;;;;;;;9.13;1.60;;;;;;;;;;4972481;28;20445;-60
2022/11/08 10:29:45;;;;;;;2.90;1.53;;;;;;;;;;4973650;28;20490;-57
2022/11/08 10:32:11;;;;;;;3.40;1.80;;;;;;;;;;4981299;28;20441;-58
2022/11/08 10:34:40;;;;;;;1.97;1.30;;;;;;;;;;4986067;28;21027;-58
2022/11/08 10:37:08;;;;;;;1.70;1.00;;;;;;;;;;4977423;28;20178;-57
2022/11/08 10:39:35;;;;;;;5.17;1.40;;;;;;;;;;4971266;28;20440;-56
2022/11/08 10:42:15;;;;;;;3.43;1.83;;;;;;;;;;4982873;28;20460;-57
2022/11/08 10:44:41;;;;;;;1.87;1.20;;;;;;;;;;4969581;28;20441;-57
2022/11/08 10:47:12;;;;;;;2.77;1.43;;;;;;;;;;4974145;28;20436;-57
2022/11/08 10:49:38;;;;;;;2.10;1.33;;;;;;;;;;4971009;28;20511;-57
2022/11/08 10:52:23;;;;;;;3.30;1.60;;;;;;;;;;4987852;28;20444;-59
2022/11/08 10:54:50;;;;;;;1.73;1.00;;;;;;;;;;4979208;28;20572;-59
2022/11/08 10:57:17;;;;;;;1.93;1.27;;;;;;;;;;4970444;28;20527;-57
2022/11/08 10:59:43;;;;;;;3.30;1.60;;;;;;;;;;4973907;28;20428;-57
2022/11/08 11:02:20;;;;;;;3.90;1.63;;;;;;;;;;4981767;28;20484;-57
2022/11/08 11:04:46;;;;;;;2.20;1.67;;;;;;;;;;4986085;28;20568;-56
2022/11/08 11:07:31;;;;;;;4.07;2.40;;;;;;;;;;4976429;28;20437;-55
2022/11/08 11:09:58;;;;;;;2.37;1.40;;;;;;;;;;4972492;28;20457;-57
2022/11/08 11:12:24;;;;;;;2.53;2.07;;;;;;;;;;4972387;28;20480;-58
2022/11/08 11:14:57;;;;;;;2.33;1.37;;;;;;;;;;4981559;28;20478;-55
2022/11/08 11:17:24;;;;;;;2.87;1.33;;;;;;;;;;4976978;28;20880;-57
2022/11/08 11:19:54;;;;;;;2.93;1.97;;;;;;;;;;4973071;28;20433;-57
2022/11/08 11:22:28;;;;;;;2.40;1.80;;;;;;;;;;4979935;28;20466;-57
2022/11/08 11:24:54;;;;;;;5.70;2.10;;;;;;;;;;4997720;28;20798;-56
2022/11/08 11:27:34;;;;;;;3.17;1.40;;;;;;;;;;4967990;28;20449;-57
2022/11/08 11:30:20;;;;;;;1.93;1.37;;;;;;;;;;4969780;28;20443;-59
2022/11/08 11:32:59;;;;;;;2.23;1.50;;;;;;;;;;4971385;28;21057;-55
2022/11/08 11:35:25;;;;;;;3.17;1.63;;;;;;;;;;4983554;28;20484;-56
2022/11/08 11:37:51;;;;;;;3.77;1.50;;;;;;;;;;4976558;28;20429;-57
2022/11/08 11:40:26;;;;;;;3.07;1.83;;;;;;;;;;4987592;28;20455;-56
2022/11/08 11:43:06;;;;;;;2.60;1.60;;;;;;;;;;4982855;28;20452;-57
2022/11/08 11:45:53;;;;;;;2.60;1.90;;;;;;;;;;4979233;28;20421;-56
2022/11/08 11:48:24;;;;;;;2.30;1.50;;;;;;;;;;4957700;28;20448;-55
2022/11/08 11:50:50;;;;;;;2.53;1.83;;;;;;;;;;4986717;28;20508;-57
2022/11/08 11:53:17;;;;;;;2.43;1.70;;;;;;;;;;4984746;28;20501;-56
2022/11/08 11:55:59;;;;;;;2.97;1.90;;;;;;;;;;4985810;28;20556;-57
2022/11/08 11:58:37;;;;;;;2.73;1.60;;;;;;;;;;4941960;28;20428;-57
2022/11/08 12:01:25;;;;;;;3.40;1.87;;;;;;;;;;4981466;28;20429;-58
2022/11/08 12:04:10;;;;;;;5.77;1.80;;;;;;;;;;4962370;28;20769;-57
2022/11/08 12:06:55;;;;;;;1.77;1.20;;;;;;;;;;4989081;28;20950;-58
2022/11/08 12:09:30;;;;;;;2.33;1.73;;;;;;;;;;4978294;28;20433;-59
2022/11/08 12:12:05;;;;;;;2.63;1.57;;;;;;;;;;4987963;28;20982;-61
2022/11/08 12:14:36;;;;;;;3.50;1.50;;;;;;;;;;4965900;28;20562;-59
2022/11/08 12:17:21;;;;;;;2.83;1.67;;;;;;;;;;4998774;28;20464;-59
2022/11/08 12:19:59;;;;;;;2.60;1.50;;;;;;;;;;4958123;28;22683;-59
2022/11/08 12:22:36;;;;;;;2.50;1.70;;;;;;;;;;4986721;28;20447;-59
2022/11/08 12:25:10;;;;;;;3.03;1.67;;;;;;;;;;4998593;28;20535;-56
2022/11/08 12:27:50;;;;;;;2.77;1.40;;;;;;;;;;4989641;28;20988;-58
2022/11/08 12:30:20;;;;;;;2.20;1.17;;;;;;;;;;4951855;28;20444;-58
2022/11/08 12:33:19;;;;;;;2.80;1.50;;;;;;;;;;4987295;28;20433;-58
2022/11/08 12:36:03;;;;;;;2.53;1.40;;;;;;;;;;4970481;28;20584;-57
2022/11/08 12:38:31;;;;;;;2.07;1.33;;;;;;;;;;4966632;28;21316;-56
2022/11/08 12:41:07;;;;;;;3.17;1.43;;;;;;;;;;4985480;28;20575;-58
2022/11/08 12:43:33;;;;;;;2.00;0.93;;;;;;;;;;4977312;28;20436;-58
2022/11/08 12:46:05;;;;;;;3.53;1.30;;;;;;;;;;4988976;28;22446;-57
2022/11/08 12:48:40;;;;;;;4.43;1.60;;;;;;;;;;4981285;28;20197;-59
2022/11/08 12:51:10;;;;;;;3.53;1.47;;;;;;;;;;4984758;28;20479;-59
2022/11/08 12:53:55;;;;;;;3.50;1.80;;;;;;;;;;4962666;28;20445;-56
2022/11/08 12:56:22;;;;;;;2.27;1.60;;;;;;;;;;4990393;28;20441;-57
2022/11/08 12:58:52;;;;;;;2.90;1.70;;;;;;;;;;4964008;28;20513;-57
2022/11/08 13:01:18;;;;;;;2.40;1.60;;;;;;;;;;4984860;28;20806;-57
2022/11/08 13:03:44;;;;;;;3.07;1.60;;;;;;;;;;4938182;28;20448;-54
2022/11/08 13:06:17;;;;;;;3.20;1.87;;;;;;;;;;4965360;28;20798;-58
2022/11/08 13:08:58;;;;;;;3.70;2.40;;;;;;;;;;4987979;28;21052;-58
2022/11/08 13:11:29;;;;;;;3.10;2.10;;;;;;;;;;4976102;28;20440;-55
2022/11/08 13:13:55;;;;;;;2.63;1.70;;;;;;;;;;4984134;28;20448;-57
2022/11/08 13:16:22;;;;;;;4.23;2.23;;;;;;;;;;4968673;28;20464;-55
2022/11/08 13:18:49;;;;;;;1.80;1.07;;;;;;;;;;4981106;28;20441;-56
2022/11/08 13:21:28;;;;;;;2.50;1.60;;;;;;;;;;4970267;28;20496;-59
2022/11/08 13:23:54;;;;;;;2.67;1.50;;;;;;;;;;4981379;28;20440;-58
2022/11/08 13:26:21;;;;;;;5.83;1.43;;;;;;;;;;4974020;28;20466;-57
2022/11/08 13:28:47;;;;;;;2.10;1.10;;;;;;;;;;4982942;28;20466;-58
2022/11/08 13:31:18;;;;;;;2.60;1.40;;;;;;;;;;4982018;28;20476;-58
2022/11/08 13:34:08;;;;;;;4.40;1.33;;;;;;;;;;4979682;28;20433;-56
2022/11/08 13:36:44;;;;;;;3.30;1.30;;;;;;;;;;4972224;28;20986;-57
2022/11/08 13:39:10;;;;;;;2.67;1.70;;;;;;;;;;4970707;28;20444;-58
2022/11/08 13:41:55;;;;;;;3.67;1.47;;;;;;;;;;4978847;28;20449;-58
2022/11/08 13:44:40;;;;;;;2.50;1.40;;;;;;;;;;4975851;28;20569;-56
2022/11/08 13:47:09;;;;;;;4.03;2.57;;;;;;;;;;4983405;28;20428;-58
2022/11/08 13:49:35;;;;;;;5.40;3.00;;;;;;;;;;4963564;28;20473;-57
2022/11/08 13:52:20;;;;;;;4.30;1.20;;;;;;;;;;4980330;28;20425;-56
2022/11/08 13:54:47;;;;;;;3.87;1.83;;;;;;;;;;4982771;28;20956;-58
2022/11/08 13:57:17;;;;;;;2.40;1.50;;;;;;;;;;4985406;28;21022;-58
2022/11/08 13:59:43;;;;;;;2.97;1.33;;;;;;;;;;4962692;28;23379;-57
2022/11/08 14:02:24;;;;;;;3.63;1.70;;;;;;;;;;4990289;28;20457;-58
2022/11/08 14:04:50;;;;;;;2.77;1.50;;;;;;;;;;4979795;28;20257;-58
2022/11/08 14:07:16;;;;;;;3.00;1.73;;;;;;;;;;4984256;28;20444;-59
2022/11/08 14:09:50;;;;;;;1.83;1.30;;;;;;;;;;4944492;28;20445;-56
2022/11/08 14:12:25;;;;;;;1.97;1.57;;;;;;;;;;4984557;28;20561;-58
2022/11/08 14:15:06;;;;;;;2.20;1.50;;;;;;;;;;4949226;28;20575;-58
2022/11/08 14:17:43;;;;;;;3.10;1.83;;;;;;;;;;4981905;28;21229;-58
2022/11/08 14:20:21;;;;;;;3.80;1.10;;;;;;;;;;4968206;28;21235;-53
2022/11/08 14:22:47;;;;;;;2.20;1.60;;;;;;;;;;5003283;28;20552;-57
2022/11/08 14:25:17;;;;;;;2.90;1.47;;;;;;;;;;4969810;28;20452;-58
2022/11/08 14:27:43;;;;;;;1.87;1.20;;;;;;;;;;4987318;28;20433;-57
2022/11/08 14:30:19;;;;;;;1.83;1.10;;;;;;;;;;4963925;28;20455;-57
2022/11/08 14:32:45;;;;;;;2.17;1.10;;;;;;;;;;5000733;28;20452;-58
2022/11/08 14:35:11;;;;;;;2.03;1.20;;;;;;;;;;4987710;28;20480;-58
2022/11/08 14:37:37;;;;;;;6.10;1.37;;;;;;;;;;4987379;28;20444;-57
2022/11/08 14:40:24;;;;;;;3.80;1.63;;;;;;;;;;4952422;28;20464;-58
2022/11/08 14:42:50;;;;;;;2.47;1.80;;;;;;;;;;4975051;28;20498;-58
2022/11/08 14:45:16;;;;;;;3.33;1.50;;;;;;;;;;4980816;28;20468;-57
2022/11/08 14:47:42;;;;;;;5.33;1.50;;;;;;;;;;4958416;28;20455;-57
2022/11/08 14:50:15;;;;;;;2.20;1.33;;;;;;;;;;4985775;28;20500;-56
2022/11/08 14:52:41;;;;;;;2.70;1.27;;;;;;;;;;4963491;28;20448;-57
2022/11/08 14:55:08;;;;;;;2.53;1.47;;;;;;;;;;4955399;28;22888;-56
2022/11/08 14:57:34;;;;;;;2.30;1.10;;;;;;;;;;4975772;28;20429;-56
2022/11/08 15:00:12;;;;;;;4.23;1.20;;;;;;;;;;4975888;28;20429;-56
2022/11/08 15:02:42;;;;;;;3.57;1.70;;;;;;;;;;4988333;28;20439;-62
2022/11/08 15:05:41;;;;;;;3.13;1.33;;;;;;;;;;4954795;28;20696;-57
2022/11/08 15:08:23;;;;;;;3.10;1.50;;;;;;;;;;4976786;28;20950;-54
2022/11/08 15:11:02;;;;;;;2.70;1.40;;;;;;;;;;4976008;28;20972;-58
2022/11/08 15:13:28;;;;;;;5.90;2.23;;;;;;;;;;4981381;28;20476;-58
2022/11/08 15:16:01;;;;;;;3.20;1.30;;;;;;;;;;4950892;28;20487;-58